sensor_id;sensor_type;location;lat;lon;timestamp;P1;durP1;ratioP1;P2;durP2;ratioP2
63699;SDS011;49845;47.130;142.766;2023-06-10T00:02:20;2.28;;;1.90;;
63699;SDS011;49845;47.130;142.766;2023-06-10T00:04:51;1.95;;;1.80;;
63699;SDS011;49845;47.130;142.766;2023-06-10T00:07:22;2.95;;;1.65;;
63699;SDS011;49845;47.130;142.766;2023-06-10T00:09:52;3.17;;;1.67;;
63699;SDS011;49845;47.130;142.766;2023-06-10T00:12:23;2.88;;;2.20;;
63699;SDS011;49845;47.130;142.766;2023-06-10T00:14:58;2.20;;;2.00;;
63699;SDS011;49845;47.130;142.766;2023-06-10T00:17:28;2.50;;;1.90;;
63699;SDS011;49845;47.130;142.766;2023-06-10T00:20:00;2.35;;;1.85;;
63699;SDS011;49845;47.130;142.766;2023-06-10T00:22:35;2.10;;;1.70;;
63699;SDS011;49845;47.130;142.766;2023-06-10T00:25:07;2.13;;;1.80;;
63699;SDS011;49845;47.130;142.766;2023-06-10T00:27:38;1.60;;;1.50;;
63699;SDS011;49845;47.130;142.766;2023-06-10T00:30:11;1.95;;;1.75;;
63699;SDS011;49845;47.130;142.766;2023-06-10T00:32:42;1.90;;;1.70;;
63699;SDS011;49845;47.130;142.766;2023-06-10T00:35:13;2.83;;;1.77;;
63699;SDS011;49845;47.130;142.766;2023-06-10T00:37:44;1.95;;;1.58;;
63699;SDS011;49845;47.130;142.766;2023-06-10T00:40:14;1.70;;;1.60;;
63699;SDS011;49845;47.130;142.766;2023-06-10T00:42:45;1.67;;;1.30;;
63699;SDS011;49845;47.130;142.766;2023-06-10T00:45:17;5.10;;;1.73;;
63699;SDS011;49845;47.130;142.766;2023-06-10T00:47:48;2.17;;;1.67;;
63699;SDS011;49845;47.130;142.766;2023-06-10T00:50:19;1.85;;;1.55;;
63699;SDS011;49845;47.130;142.766;2023-06-10T00:52:49;1.90;;;1.70;;
63699;SDS011;49845;47.130;142.766;2023-06-10T00:55:21;1.80;;;1.50;;
63699;SDS011;49845;47.130;142.766;2023-06-10T00:57:54;2.83;;;1.40;;
63699;SDS011;49845;47.130;142.766;2023-06-10T01:00:27;3.78;;;1.60;;
63699;SDS011;49845;47.130;142.766;2023-06-10T01:02:57;1.80;;;1.50;;
63699;SDS011;49845;47.130;142.766;2023-06-10T01:05:28;2.00;;;1.70;;
63699;SDS011;49845;47.130;142.766;2023-06-10T01:08:00;2.08;;;1.60;;
63699;SDS011;49845;47.130;142.766;2023-06-10T01:10:38;1.80;;;1.48;;
63699;SDS011;49845;47.130;142.766;2023-06-10T01:13:13;3.72;;;1.80;;
63699;SDS011;49845;47.130;142.766;2023-06-10T01:15:47;1.80;;;1.70;;
63699;SDS011;49845;47.130;142.766;2023-06-10T01:18:18;8.52;;;1.20;;
63699;SDS011;49845;47.130;142.766;2023-06-10T01:20:54;4.22;;;1.33;;
63699;SDS011;49845;47.130;142.766;2023-06-10T01:23:26;1.60;;;1.50;;
63699;SDS011;49845;47.130;142.766;2023-06-10T01:25:59;1.67;;;1.38;;
63699;SDS011;49845;47.130;142.766;2023-06-10T01:28:33;2.53;;;1.83;;
63699;SDS011;49845;47.130;142.766;2023-06-10T01:31:13;1.90;;;1.70;;
63699;SDS011;49845;47.130;142.766;2023-06-10T01:33:51;1.40;;;1.30;;
63699;SDS011;49845;47.130;142.766;2023-06-10T01:36:22;2.30;;;1.60;;
63699;SDS011;49845;47.130;142.766;2023-06-10T01:38:55;4.63;;;1.70;;
63699;SDS011;49845;47.130;142.766;2023-06-10T01:41:29;2.42;;;1.90;;
63699;SDS011;49845;47.130;142.766;2023-06-10T01:44:00;5.53;;;1.90;;
63699;SDS011;49845;47.130;142.766;2023-06-10T01:46:31;2.30;;;1.77;;
63699;SDS011;49845;47.130;142.766;2023-06-10T01:49:01;1.98;;;1.77;;
63699;SDS011;49845;47.130;142.766;2023-06-10T01:51:32;2.28;;;1.88;;
63699;SDS011;49845;47.130;142.766;2023-06-10T01:54:05;3.22;;;1.70;;
63699;SDS011;49845;47.130;142.766;2023-06-10T01:56:36;1.73;;;1.63;;
63699;SDS011;49845;47.130;142.766;2023-06-10T01:59:06;1.70;;;1.60;;
63699;SDS011;49845;47.130;142.766;2023-06-10T02:01:37;1.88;;;1.52;;
63699;SDS011;49845;47.130;142.766;2023-06-10T02:04:07;2.47;;;1.58;;
63699;SDS011;49845;47.130;142.766;2023-06-10T02:06:38;4.28;;;1.60;;
63699;SDS011;49845;47.130;142.766;2023-06-10T02:09:11;1.90;;;1.42;;
63699;SDS011;49845;47.130;142.766;2023-06-10T02:11:46;2.08;;;1.65;;
63699;SDS011;49845;47.130;142.766;2023-06-10T02:14:16;3.92;;;1.77;;
63699;SDS011;49845;47.130;142.766;2023-06-10T02:16:47;2.65;;;1.67;;
63699;SDS011;49845;47.130;142.766;2023-06-10T02:19:19;2.40;;;1.75;;
63699;SDS011;49845;47.130;142.766;2023-06-10T02:21:49;1.52;;;1.20;;
63699;SDS011;49845;47.130;142.766;2023-06-10T02:24:21;1.50;;;1.40;;
63699;SDS011;49845;47.130;142.766;2023-06-10T02:26:52;2.25;;;1.60;;
63699;SDS011;49845;47.130;142.766;2023-06-10T02:29:23;2.75;;;1.60;;
63699;SDS011;49845;47.130;142.766;2023-06-10T02:31:53;1.88;;;1.60;;
63699;SDS011;49845;47.130;142.766;2023-06-10T02:34:24;2.70;;;1.70;;
63699;SDS011;49845;47.130;142.766;2023-06-10T02:36:55;1.67;;;1.38;;
63699;SDS011;49845;47.130;142.766;2023-06-10T02:39:27;1.77;;;1.40;;
63699;SDS011;49845;47.130;142.766;2023-06-10T02:41:58;2.00;;;1.50;;
63699;SDS011;49845;47.130;142.766;2023-06-10T02:44:28;1.63;;;1.30;;
63699;SDS011;49845;47.130;142.766;2023-06-10T02:46:59;2.42;;;1.60;;
63699;SDS011;49845;47.130;142.766;2023-06-10T02:49:29;3.15;;;1.30;;
63699;SDS011;49845;47.130;142.766;2023-06-10T02:52:00;1.75;;;1.63;;
63699;SDS011;49845;47.130;142.766;2023-06-10T02:54:32;1.40;;;1.17;;
63699;SDS011;49845;47.130;142.766;2023-06-10T02:57:03;1.60;;;1.50;;
63699;SDS011;49845;47.130;142.766;2023-06-10T02:59:35;1.65;;;1.30;;
63699;SDS011;49845;47.130;142.766;2023-06-10T03:02:06;1.98;;;1.20;;
63699;SDS011;49845;47.130;142.766;2023-06-10T03:04:37;1.63;;;1.20;;
63699;SDS011;49845;47.130;142.766;2023-06-10T03:07:09;1.52;;;1.25;;
63699;SDS011;49845;47.130;142.766;2023-06-10T03:09:47;1.20;;;1.00;;
63699;SDS011;49845;47.130;142.766;2023-06-10T03:12:17;4.43;;;1.33;;
63699;SDS011;49845;47.130;142.766;2023-06-10T03:14:48;2.65;;;1.15;;
63699;SDS011;49845;47.130;142.766;2023-06-10T03:17:19;1.35;;;1.10;;
63699;SDS011;49845;47.130;142.766;2023-06-10T03:19:50;1.20;;;1.10;;
63699;SDS011;49845;47.130;142.766;2023-06-10T03:22:21;2.38;;;1.13;;
63699;SDS011;49845;47.130;142.766;2023-06-10T03:24:55;2.38;;;0.95;;
63699;SDS011;49845;47.130;142.766;2023-06-10T03:27:27;1.27;;;1.17;;
63699;SDS011;49845;47.130;142.766;2023-06-10T03:29:58;1.50;;;1.40;;
63699;SDS011;49845;47.130;142.766;2023-06-10T03:32:28;3.45;;;1.20;;
63699;SDS011;49845;47.130;142.766;2023-06-10T03:34:59;3.92;;;1.20;;
63699;SDS011;49845;47.130;142.766;2023-06-10T03:37:30;2.08;;;1.20;;
63699;SDS011;49845;47.130;142.766;2023-06-10T03:40:02;1.50;;;1.05;;
63699;SDS011;49845;47.130;142.766;2023-06-10T03:42:34;3.15;;;1.30;;
63699;SDS011;49845;47.130;142.766;2023-06-10T03:45:05;1.40;;;1.23;;
63699;SDS011;49845;47.130;142.766;2023-06-10T03:47:39;7.93;;;1.88;;
63699;SDS011;49845;47.130;142.766;2023-06-10T03:50:10;4.70;;;1.15;;
63699;SDS011;49845;47.130;142.766;2023-06-10T03:52:41;2.28;;;1.40;;
63699;SDS011;49845;47.130;142.766;2023-06-10T03:55:15;1.80;;;1.40;;
63699;SDS011;49845;47.130;142.766;2023-06-10T03:57:45;1.85;;;1.48;;
63699;SDS011;49845;47.130;142.766;2023-06-10T04:00:16;3.00;;;1.50;;
63699;SDS011;49845;47.130;142.766;2023-06-10T04:02:49;1.48;;;1.30;;
63699;SDS011;49845;47.130;142.766;2023-06-10T04:05:20;1.65;;;1.40;;
63699;SDS011;49845;47.130;142.766;2023-06-10T04:07:51;3.00;;;1.60;;
63699;SDS011;49845;47.130;142.766;2023-06-10T04:10:23;1.60;;;1.50;;
63699;SDS011;49845;47.130;142.766;2023-06-10T04:12:53;2.80;;;1.85;;
63699;SDS011;49845;47.130;142.766;2023-06-10T04:15:24;3.22;;;1.83;;
63699;SDS011;49845;47.130;142.766;2023-06-10T04:17:55;1.98;;;1.58;;
63699;SDS011;49845;47.130;142.766;2023-06-10T04:20:26;2.50;;;1.67;;
63699;SDS011;49845;47.130;142.766;2023-06-10T04:22:57;1.85;;;1.40;;
63699;SDS011;49845;47.130;142.766;2023-06-10T04:25:30;2.78;;;1.52;;
63699;SDS011;49845;47.130;142.766;2023-06-10T04:28:01;2.38;;;1.40;;
63699;SDS011;49845;47.130;142.766;2023-06-10T04:30:32;2.30;;;1.50;;
63699;SDS011;49845;47.130;142.766;2023-06-10T04:33:03;1.80;;;1.50;;
63699;SDS011;49845;47.130;142.766;2023-06-10T04:35:36;1.88;;;1.25;;
63699;SDS011;49845;47.130;142.766;2023-06-10T04:38:06;1.95;;;1.40;;
63699;SDS011;49845;47.130;142.766;2023-06-10T04:40:39;3.75;;;1.70;;
63699;SDS011;49845;47.130;142.766;2023-06-10T04:43:12;1.85;;;1.50;;
63699;SDS011;49845;47.130;142.766;2023-06-10T04:45:43;2.63;;;1.90;;
63699;SDS011;49845;47.130;142.766;2023-06-10T04:48:14;2.47;;;1.67;;
63699;SDS011;49845;47.130;142.766;2023-06-10T04:50:45;2.13;;;1.67;;
63699;SDS011;49845;47.130;142.766;2023-06-10T04:53:15;6.13;;;1.80;;
63699;SDS011;49845;47.130;142.766;2023-06-10T04:55:47;3.58;;;2.10;;
63699;SDS011;49845;47.130;142.766;2023-06-10T04:58:18;4.22;;;3.05;;
63699;SDS011;49845;47.130;142.766;2023-06-10T05:00:49;2.38;;;1.80;;
63699;SDS011;49845;47.130;142.766;2023-06-10T05:03:19;2.72;;;1.90;;
63699;SDS011;49845;47.130;142.766;2023-06-10T05:05:50;1.50;;;1.40;;
63699;SDS011;49845;47.130;142.766;2023-06-10T05:08:21;2.10;;;1.63;;
63699;SDS011;49845;47.130;142.766;2023-06-10T05:10:53;2.78;;;1.80;;
63699;SDS011;49845;47.130;142.766;2023-06-10T05:13:24;1.88;;;1.55;;
63699;SDS011;49845;47.130;142.766;2023-06-10T05:15:54;3.03;;;1.67;;
63699;SDS011;49845;47.130;142.766;2023-06-10T05:18:25;1.80;;;1.58;;
63699;SDS011;49845;47.130;142.766;2023-06-10T05:20:56;1.67;;;1.58;;
63699;SDS011;49845;47.130;142.766;2023-06-10T05:23:27;1.95;;;1.75;;
63699;SDS011;49845;47.130;142.766;2023-06-10T05:25:59;1.58;;;1.48;;
63699;SDS011;49845;47.130;142.766;2023-06-10T05:28:30;2.65;;;1.65;;
63699;SDS011;49845;47.130;142.766;2023-06-10T05:31:00;1.85;;;1.40;;
63699;SDS011;49845;47.130;142.766;2023-06-10T05:33:31;2.47;;;1.33;;
63699;SDS011;49845;47.130;142.766;2023-06-10T05:36:02;3.72;;;1.52;;
63699;SDS011;49845;47.130;142.766;2023-06-10T05:38:32;3.58;;;1.85;;
63699;SDS011;49845;47.130;142.766;2023-06-10T05:41:05;2.53;;;1.60;;
63699;SDS011;49845;47.130;142.766;2023-06-10T05:43:35;1.52;;;1.30;;
63699;SDS011;49845;47.130;142.766;2023-06-10T05:46:06;2.78;;;1.40;;
63699;SDS011;49845;47.130;142.766;2023-06-10T05:48:37;2.55;;;1.77;;
63699;SDS011;49845;47.130;142.766;2023-06-10T05:51:07;1.92;;;1.58;;
63699;SDS011;49845;47.130;142.766;2023-06-10T05:53:38;3.67;;;1.55;;
63699;SDS011;49845;47.130;142.766;2023-06-10T05:56:10;2.88;;;1.33;;
63699;SDS011;49845;47.130;142.766;2023-06-10T05:58:41;3.08;;;1.52;;
63699;SDS011;49845;47.130;142.766;2023-06-10T06:01:11;1.38;;;1.27;;
63699;SDS011;49845;47.130;142.766;2023-06-10T06:03:43;3.28;;;1.40;;
63699;SDS011;49845;47.130;142.766;2023-06-10T06:06:13;3.00;;;1.63;;
63699;SDS011;49845;47.130;142.766;2023-06-10T06:08:44;2.08;;;1.40;;
63699;SDS011;49845;47.130;142.766;2023-06-10T06:11:16;4.15;;;1.60;;
63699;SDS011;49845;47.130;142.766;2023-06-10T06:13:47;1.60;;;1.50;;
63699;SDS011;49845;47.130;142.766;2023-06-10T06:16:19;1.75;;;1.52;;
63699;SDS011;49845;47.130;142.766;2023-06-10T06:18:50;3.65;;;1.30;;
63699;SDS011;49845;47.130;142.766;2023-06-10T06:21:20;1.85;;;1.60;;
63699;SDS011;49845;47.130;142.766;2023-06-10T06:23:51;2.53;;;1.40;;
63699;SDS011;49845;47.130;142.766;2023-06-10T06:26:24;2.28;;;1.58;;
63699;SDS011;49845;47.130;142.766;2023-06-10T06:28:54;1.20;;;1.10;;
63699;SDS011;49845;47.130;142.766;2023-06-10T06:31:25;1.55;;;1.20;;
63699;SDS011;49845;47.130;142.766;2023-06-10T06:33:56;1.63;;;1.33;;
63699;SDS011;49845;47.130;142.766;2023-06-10T06:36:26;1.23;;;1.10;;
63699;SDS011;49845;47.130;142.766;2023-06-10T06:38:57;1.25;;;1.05;;
63699;SDS011;49845;47.130;142.766;2023-06-10T06:41:30;1.52;;;1.13;;
63699;SDS011;49845;47.130;142.766;2023-06-10T06:44:00;2.33;;;1.40;;
63699;SDS011;49845;47.130;142.766;2023-06-10T06:46:32;2.80;;;1.50;;
63699;SDS011;49845;47.130;142.766;2023-06-10T06:49:02;3.15;;;1.55;;
63699;SDS011;49845;47.130;142.766;2023-06-10T06:51:33;2.08;;;1.60;;
63699;SDS011;49845;47.130;142.766;2023-06-10T06:54:04;4.30;;;2.10;;
63699;SDS011;49845;47.130;142.766;2023-06-10T06:56:37;10.27;;;6.30;;
63699;SDS011;49845;47.130;142.766;2023-06-10T06:59:07;3.20;;;2.60;;
63699;SDS011;49845;47.130;142.766;2023-06-10T07:01:38;2.30;;;1.98;;
63699;SDS011;49845;47.130;142.766;2023-06-10T07:04:09;28.23;;;14.32;;
63699;SDS011;49845;47.130;142.766;2023-06-10T07:06:39;3.00;;;2.70;;
63699;SDS011;49845;47.130;142.766;2023-06-10T07:09:10;4.55;;;2.95;;
63699;SDS011;49845;47.130;142.766;2023-06-10T07:11:42;2.78;;;2.40;;
63699;SDS011;49845;47.130;142.766;2023-06-10T07:14:13;2.25;;;2.00;;
63699;SDS011;49845;47.130;142.766;2023-06-10T07:16:44;6.40;;;2.00;;
63699;SDS011;49845;47.130;142.766;2023-06-10T07:19:16;1.92;;;1.55;;
63699;SDS011;49845;47.130;142.766;2023-06-10T07:21:46;2.85;;;1.75;;
63699;SDS011;49845;47.130;142.766;2023-06-10T07:24:17;3.92;;;2.10;;
63699;SDS011;49845;47.130;142.766;2023-06-10T07:26:50;3.67;;;1.90;;
63699;SDS011;49845;47.130;142.766;2023-06-10T07:29:21;4.90;;;1.80;;
63699;SDS011;49845;47.130;142.766;2023-06-10T07:31:51;2.28;;;1.50;;
63699;SDS011;49845;47.130;142.766;2023-06-10T07:34:22;1.73;;;1.40;;
63699;SDS011;49845;47.130;142.766;2023-06-10T07:36:55;2.58;;;1.10;;
63699;SDS011;49845;47.130;142.766;2023-06-10T07:39:25;3.70;;;1.48;;
63699;SDS011;49845;47.130;142.766;2023-06-10T07:41:58;1.52;;;1.40;;
63699;SDS011;49845;47.130;142.766;2023-06-10T07:44:28;2.50;;;1.15;;
63699;SDS011;49845;47.130;142.766;2023-06-10T07:46:59;1.25;;;1.15;;
63699;SDS011;49845;47.130;142.766;2023-06-10T07:49:30;3.15;;;1.30;;
63699;SDS011;49845;47.130;142.766;2023-06-10T07:52:01;1.48;;;1.30;;
63699;SDS011;49845;47.130;142.766;2023-06-10T07:54:31;1.48;;;1.10;;
63699;SDS011;49845;47.130;142.766;2023-06-10T07:57:04;2.45;;;0.93;;
63699;SDS011;49845;47.130;142.766;2023-06-10T07:59:36;1.10;;;1.00;;
63699;SDS011;49845;47.130;142.766;2023-06-10T08:02:06;1.20;;;1.10;;
63699;SDS011;49845;47.130;142.766;2023-06-10T08:04:37;2.90;;;1.00;;
63699;SDS011;49845;47.130;142.766;2023-06-10T08:07:08;2.35;;;1.20;;
63699;SDS011;49845;47.130;142.766;2023-06-10T08:09:38;1.42;;;1.20;;
63699;SDS011;49845;47.130;142.766;2023-06-10T08:12:10;3.67;;;1.10;;
63699;SDS011;49845;47.130;142.766;2023-06-10T08:14:41;1.35;;;1.13;;
63699;SDS011;49845;47.130;142.766;2023-06-10T08:17:12;2.15;;;1.10;;
63699;SDS011;49845;47.130;142.766;2023-06-10T08:19:42;3.38;;;1.10;;
63699;SDS011;49845;47.130;142.766;2023-06-10T08:22:13;1.63;;;1.00;;
63699;SDS011;49845;47.130;142.766;2023-06-10T08:24:44;1.17;;;1.00;;
63699;SDS011;49845;47.130;142.766;2023-06-10T08:27:17;0.88;;;0.88;;
63699;SDS011;49845;47.130;142.766;2023-06-10T08:29:47;4.10;;;0.90;;
63699;SDS011;49845;47.130;142.766;2023-06-10T08:32:18;3.25;;;1.00;;
63699;SDS011;49845;47.130;142.766;2023-06-10T08:34:49;1.10;;;1.00;;
63699;SDS011;49845;47.130;142.766;2023-06-10T08:37:19;5.07;;;1.30;;
63699;SDS011;49845;47.130;142.766;2023-06-10T08:39:50;2.67;;;1.65;;
63699;SDS011;49845;47.130;142.766;2023-06-10T08:42:23;4.22;;;0.90;;
63699;SDS011;49845;47.130;142.766;2023-06-10T08:44:58;1.77;;;1.10;;
63699;SDS011;49845;47.130;142.766;2023-06-10T08:47:30;2.85;;;1.00;;
63699;SDS011;49845;47.130;142.766;2023-06-10T08:50:04;3.25;;;1.20;;
63699;SDS011;49845;47.130;142.766;2023-06-10T08:52:40;2.45;;;1.00;;
63699;SDS011;49845;47.130;142.766;2023-06-10T08:55:13;2.13;;;1.25;;
63699;SDS011;49845;47.130;142.766;2023-06-10T08:57:49;4.10;;;1.50;;
63699;SDS011;49845;47.130;142.766;2023-06-10T09:00:20;1.88;;;1.10;;
63699;SDS011;49845;47.130;142.766;2023-06-10T09:02:52;1.95;;;1.25;;
63699;SDS011;49845;47.130;142.766;2023-06-10T09:05:27;1.13;;;1.02;;
63699;SDS011;49845;47.130;142.766;2023-06-10T09:08:01;2.38;;;1.40;;
63699;SDS011;49845;47.130;142.766;2023-06-10T09:10:37;2.65;;;1.20;;
63699;SDS011;49845;47.130;142.766;2023-06-10T09:13:10;1.98;;;1.40;;
63699;SDS011;49845;47.130;142.766;2023-06-10T09:15:43;2.00;;;1.42;;
63699;SDS011;49845;47.130;142.766;2023-06-10T09:18:15;1.92;;;1.33;;
63699;SDS011;49845;47.130;142.766;2023-06-10T09:20:48;1.67;;;1.25;;
63699;SDS011;49845;47.130;142.766;2023-06-10T09:23:19;2.97;;;1.40;;
63699;SDS011;49845;47.130;142.766;2023-06-10T09:25:56;1.75;;;1.40;;
63699;SDS011;49845;47.130;142.766;2023-06-10T09:28:29;2.42;;;1.30;;
63699;SDS011;49845;47.130;142.766;2023-06-10T09:31:04;1.40;;;1.30;;
63699;SDS011;49845;47.130;142.766;2023-06-10T09:33:37;2.97;;;1.60;;
63699;SDS011;49845;47.130;142.766;2023-06-10T09:36:08;3.47;;;2.70;;
63699;SDS011;49845;47.130;142.766;2023-06-10T09:38:39;2.83;;;1.80;;
63699;SDS011;49845;47.130;142.766;2023-06-10T09:41:14;2.10;;;1.90;;
63699;SDS011;49845;47.130;142.766;2023-06-10T09:43:57;4.18;;;2.35;;
63699;SDS011;49845;47.130;142.766;2023-06-10T09:46:34;3.00;;;2.20;;
63699;SDS011;49845;47.130;142.766;2023-06-10T09:49:07;5.07;;;3.30;;
63699;SDS011;49845;47.130;142.766;2023-06-10T09:51:42;8.48;;;2.53;;
63699;SDS011;49845;47.130;142.766;2023-06-10T09:54:21;6.82;;;2.63;;
63699;SDS011;49845;47.130;142.766;2023-06-10T09:56:53;22.13;;;3.33;;
63699;SDS011;49845;47.130;142.766;2023-06-10T09:59:30;15.93;;;4.43;;
63699;SDS011;49845;47.130;142.766;2023-06-10T10:02:02;4.60;;;4.13;;
63699;SDS011;49845;47.130;142.766;2023-06-10T10:04:37;3.45;;;3.15;;
63699;SDS011;49845;47.130;142.766;2023-06-10T10:07:08;3.20;;;2.90;;
63699;SDS011;49845;47.130;142.766;2023-06-10T10:09:41;9.93;;;4.07;;
63699;SDS011;49845;47.130;142.766;2023-06-10T10:12:14;4.85;;;3.42;;
63699;SDS011;49845;47.130;142.766;2023-06-10T10:14:50;3.97;;;3.25;;
63699;SDS011;49845;47.130;142.766;2023-06-10T10:17:22;4.97;;;3.05;;
63699;SDS011;49845;47.130;142.766;2023-06-10T10:19:57;6.38;;;3.45;;
63699;SDS011;49845;47.130;142.766;2023-06-10T10:22:36;4.55;;;3.67;;
63699;SDS011;49845;47.130;142.766;2023-06-10T10:25:10;4.28;;;3.35;;
63699;SDS011;49845;47.130;142.766;2023-06-10T10:27:44;5.68;;;3.83;;
63699;SDS011;49845;47.130;142.766;2023-06-10T10:30:23;9.77;;;4.22;;
63699;SDS011;49845;47.130;142.766;2023-06-10T10:32:57;5.80;;;3.80;;
63699;SDS011;49845;47.130;142.766;2023-06-10T10:35:36;6.20;;;3.50;;
63699;SDS011;49845;47.130;142.766;2023-06-10T10:38:10;5.60;;;3.63;;
63699;SDS011;49845;47.130;142.766;2023-06-10T10:40:42;4.28;;;3.47;;
63699;SDS011;49845;47.130;142.766;2023-06-10T10:43:16;3.42;;;3.13;;
63699;SDS011;49845;47.130;142.766;2023-06-10T10:45:59;5.20;;;3.60;;
63699;SDS011;49845;47.130;142.766;2023-06-10T10:48:33;3.60;;;3.30;;
63699;SDS011;49845;47.130;142.766;2023-06-10T10:51:09;6.07;;;3.28;;
63699;SDS011;49845;47.130;142.766;2023-06-10T10:53:41;3.72;;;3.35;;
63699;SDS011;49845;47.130;142.766;2023-06-10T10:56:15;4.25;;;3.58;;
63699;SDS011;49845;47.130;142.766;2023-06-10T10:59:01;5.30;;;3.63;;
63699;SDS011;49845;47.130;142.766;2023-06-10T11:01:43;4.82;;;3.60;;
63699;SDS011;49845;47.130;142.766;2023-06-10T11:04:17;5.07;;;3.75;;
63699;SDS011;49845;47.130;142.766;2023-06-10T11:06:52;5.32;;;3.97;;
63699;SDS011;49845;47.130;142.766;2023-06-10T11:09:28;7.07;;;4.30;;
63699;SDS011;49845;47.130;142.766;2023-06-10T11:11:59;5.10;;;4.25;;
63699;SDS011;49845;47.130;142.766;2023-06-10T11:14:31;12.88;;;4.43;;
63699;SDS011;49845;47.130;142.766;2023-06-10T11:17:05;6.05;;;4.78;;
63699;SDS011;49845;47.130;142.766;2023-06-10T11:19:49;6.78;;;5.25;;
63699;SDS011;49845;47.130;142.766;2023-06-10T11:22:21;7.50;;;5.55;;
63699;SDS011;49845;47.130;142.766;2023-06-10T11:24:54;8.43;;;5.60;;
63699;SDS011;49845;47.130;142.766;2023-06-10T11:27:27;7.55;;;5.70;;
63699;SDS011;49845;47.130;142.766;2023-06-10T11:30:19;8.13;;;6.03;;
63699;SDS011;49845;47.130;142.766;2023-06-10T11:32:57;8.45;;;6.97;;
63699;SDS011;49845;47.130;142.766;2023-06-10T11:35:30;13.68;;;10.52;;
63699;SDS011;49845;47.130;142.766;2023-06-10T11:38:03;8.38;;;6.68;;
63699;SDS011;49845;47.130;142.766;2023-06-10T11:40:36;9.90;;;6.43;;
63699;SDS011;49845;47.130;142.766;2023-06-10T11:43:08;15.15;;;10.15;;
63699;SDS011;49845;47.130;142.766;2023-06-10T11:45:41;12.65;;;9.43;;
63699;SDS011;49845;47.130;142.766;2023-06-10T11:48:15;10.60;;;7.78;;
63699;SDS011;49845;47.130;142.766;2023-06-10T11:50:46;9.10;;;7.57;;
63699;SDS011;49845;47.130;142.766;2023-06-10T11:53:18;12.32;;;8.10;;
63699;SDS011;49845;47.130;142.766;2023-06-10T11:55:50;9.77;;;7.63;;
63699;SDS011;49845;47.130;142.766;2023-06-10T11:58:22;7.32;;;5.63;;
63699;SDS011;49845;47.130;142.766;2023-06-10T12:00:54;5.72;;;5.05;;
63699;SDS011;49845;47.130;142.766;2023-06-10T12:03:28;8.10;;;5.88;;
63699;SDS011;49845;47.130;142.766;2023-06-10T12:06:07;6.20;;;5.40;;
63699;SDS011;49845;47.130;142.766;2023-06-10T12:08:41;7.32;;;5.50;;
63699;SDS011;49845;47.130;142.766;2023-06-10T12:11:13;9.40;;;6.18;;
63699;SDS011;49845;47.130;142.766;2023-06-10T12:13:45;6.68;;;5.70;;
63699;SDS011;49845;47.130;142.766;2023-06-10T12:16:18;7.30;;;6.03;;
63699;SDS011;49845;47.130;142.766;2023-06-10T12:19:00;9.30;;;6.32;;
63699;SDS011;49845;47.130;142.766;2023-06-10T12:21:33;8.10;;;5.68;;
63699;SDS011;49845;47.130;142.766;2023-06-10T12:24:07;6.88;;;5.78;;
63699;SDS011;49845;47.130;142.766;2023-06-10T12:26:41;6.75;;;4.80;;
63699;SDS011;49845;47.130;142.766;2023-06-10T12:29:17;5.22;;;4.43;;
63699;SDS011;49845;47.130;142.766;2023-06-10T12:31:55;6.18;;;4.90;;
63699;SDS011;49845;47.130;142.766;2023-06-10T12:34:33;7.43;;;4.95;;
63699;SDS011;49845;47.130;142.766;2023-06-10T12:37:10;6.70;;;4.57;;
63699;SDS011;49845;47.130;142.766;2023-06-10T12:39:51;7.80;;;4.20;;
63699;SDS011;49845;47.130;142.766;2023-06-10T12:42:25;5.53;;;4.35;;
63699;SDS011;49845;47.130;142.766;2023-06-10T12:44:56;6.85;;;4.05;;
63699;SDS011;49845;47.130;142.766;2023-06-10T12:47:31;6.28;;;4.43;;
63699;SDS011;49845;47.130;142.766;2023-06-10T12:50:05;5.57;;;3.30;;
63699;SDS011;49845;47.130;142.766;2023-06-10T12:52:41;5.85;;;3.90;;
63699;SDS011;49845;47.130;142.766;2023-06-10T12:55:13;6.13;;;4.07;;
63699;SDS011;49845;47.130;142.766;2023-06-10T12:57:49;5.07;;;3.95;;
63699;SDS011;49845;47.130;142.766;2023-06-10T13:00:21;6.85;;;3.85;;
63699;SDS011;49845;47.130;142.766;2023-06-10T13:02:53;6.38;;;3.97;;
63699;SDS011;49845;47.130;142.766;2023-06-10T13:08:51;8.80;;;4.90;;
63699;SDS011;49845;47.130;142.766;2023-06-10T13:11:22;14.70;;;5.43;;
63699;SDS011;49845;47.130;142.766;2023-06-10T13:13:57;7.63;;;4.88;;
63699;SDS011;49845;47.130;142.766;2023-06-10T13:16:28;5.93;;;4.28;;
63699;SDS011;49845;47.130;142.766;2023-06-10T13:19:00;8.63;;;5.60;;
63699;SDS011;49845;47.130;142.766;2023-06-10T13:21:33;8.45;;;5.15;;
63699;SDS011;49845;47.130;142.766;2023-06-10T13:24:08;9.98;;;5.68;;
63699;SDS011;49845;47.130;142.766;2023-06-10T13:26:42;10.07;;;5.72;;
63699;SDS011;49845;47.130;142.766;2023-06-10T13:29:13;6.20;;;5.00;;
63699;SDS011;49845;47.130;142.766;2023-06-10T13:31:49;6.25;;;4.82;;
63699;SDS011;49845;47.130;142.766;2023-06-10T13:34:20;6.90;;;5.40;;
63699;SDS011;49845;47.130;142.766;2023-06-10T13:36:54;5.68;;;4.35;;
63699;SDS011;49845;47.130;142.766;2023-06-10T13:39:26;5.30;;;3.47;;
63699;SDS011;49845;47.130;142.766;2023-06-10T13:41:56;7.30;;;4.38;;
63699;SDS011;49845;47.130;142.766;2023-06-10T13:44:27;9.60;;;5.30;;
63699;SDS011;49845;47.130;142.766;2023-06-10T13:47:01;7.63;;;5.68;;
63699;SDS011;49845;47.130;142.766;2023-06-10T13:49:35;10.18;;;5.78;;
63699;SDS011;49845;47.130;142.766;2023-06-10T13:52:19;8.80;;;4.75;;
63699;SDS011;49845;47.130;142.766;2023-06-10T13:54:53;7.20;;;4.68;;
63699;SDS011;49845;47.130;142.766;2023-06-10T13:57:24;8.18;;;4.60;;
63699;SDS011;49845;47.130;142.766;2023-06-10T13:59:54;7.65;;;4.55;;
63699;SDS011;49845;47.130;142.766;2023-06-10T14:02:27;7.40;;;4.03;;
63699;SDS011;49845;47.130;142.766;2023-06-10T14:05:05;9.13;;;4.60;;
63699;SDS011;49845;47.130;142.766;2023-06-10T14:07:40;7.18;;;4.90;;
63699;SDS011;49845;47.130;142.766;2023-06-10T14:10:21;8.32;;;4.57;;
63699;SDS011;49845;47.130;142.766;2023-06-10T14:12:51;5.85;;;3.83;;
63699;SDS011;49845;47.130;142.766;2023-06-10T14:15:25;7.85;;;4.68;;
63699;SDS011;49845;47.130;142.766;2023-06-10T14:17:56;4.80;;;3.88;;
63699;SDS011;49845;47.130;142.766;2023-06-10T14:20:27;7.80;;;3.53;;
63699;SDS011;49845;47.130;142.766;2023-06-10T14:22:59;5.95;;;3.58;;
63699;SDS011;49845;47.130;142.766;2023-06-10T14:25:32;4.85;;;3.33;;
63699;SDS011;49845;47.130;142.766;2023-06-10T14:28:02;7.47;;;3.40;;
63699;SDS011;49845;47.130;142.766;2023-06-10T14:30:34;5.65;;;3.00;;
63699;SDS011;49845;47.130;142.766;2023-06-10T14:33:12;5.57;;;3.67;;
63699;SDS011;49845;47.130;142.766;2023-06-10T14:35:43;5.78;;;3.38;;
63699;SDS011;49845;47.130;142.766;2023-06-10T14:38:18;5.05;;;2.72;;
63699;SDS011;49845;47.130;142.766;2023-06-10T14:40:51;3.90;;;2.85;;
63699;SDS011;49845;47.130;142.766;2023-06-10T14:43:25;6.88;;;2.88;;
63699;SDS011;49845;47.130;142.766;2023-06-10T14:45:56;3.78;;;2.53;;
63699;SDS011;49845;47.130;142.766;2023-06-10T14:48:29;3.53;;;2.58;;
63699;SDS011;49845;47.130;142.766;2023-06-10T14:51:00;3.40;;;2.10;;
63699;SDS011;49845;47.130;142.766;2023-06-10T14:53:32;5.53;;;2.88;;
63699;SDS011;49845;47.130;142.766;2023-06-10T14:56:05;4.43;;;2.13;;